sensor_id;sensor_type;location;lat;lon;timestamp;temperature;humidity
7738;DHT22;29398;45.328;5.558;2023-03-01T00:00:26;5.10;80.10
7738;DHT22;29398;45.328;5.558;2023-03-01T00:01:29;5.10;80.10
7738;DHT22;29398;45.328;5.558;2023-03-01T00:02:31;5.10;80.10
7738;DHT22;29398;45.328;5.558;2023-03-01T00:03:33;5.10;80.10
7738;DHT22;29398;45.328;5.558;2023-03-01T00:04:35;5.10;80.30
7738;DHT22;29398;45.328;5.558;2023-03-01T00:05:36;5.10;80.20
7738;DHT22;29398;45.328;5.558;2023-03-01T00:06:45;5.00;79.40
7738;DHT22;29398;45.328;5.558;2023-03-01T00:07:46;5.20;80.00
7738;DHT22;29398;45.328;5.558;2023-03-01T00:08:50;5.20;79.80
7738;DHT22;29398;45.328;5.558;2023-03-01T00:09:51;5.20;79.70
7738;DHT22;29398;45.328;5.558;2023-03-01T00:11:01;5.20;79.90
7738;DHT22;29398;45.328;5.558;2023-03-01T00:12:03;5.20;80.40
7738;DHT22;29398;45.328;5.558;2023-03-01T00:13:05;5.20;79.80
7738;DHT22;29398;45.328;5.558;2023-03-01T00:14:06;5.20;79.80
7738;DHT22;29398;45.328;5.558;2023-03-01T00:15:08;5.20;79.90
7738;DHT22;29398;45.328;5.558;2023-03-01T00:16:11;5.20;79.80
7738;DHT22;29398;45.328;5.558;2023-03-01T00:17:14;5.20;79.00
7738;DHT22;29398;45.328;5.558;2023-03-01T00:18:16;5.10;79.40
7738;DHT22;29398;45.328;5.558;2023-03-01T00:19:19;5.10;79.50
7738;DHT22;29398;45.328;5.558;2023-03-01T00:20:22;5.10;79.30
7738;DHT22;29398;45.328;5.558;2023-03-01T00:21:24;5.10;78.90
7738;DHT22;29398;45.328;5.558;2023-03-01T00:22:27;5.10;79.50
7738;DHT22;29398;45.328;5.558;2023-03-01T00:23:29;5.10;79.90
7738;DHT22;29398;45.328;5.558;2023-03-01T00:24:32;5.10;79.70
7738;DHT22;29398;45.328;5.558;2023-03-01T00:25:33;5.20;79.90
7738;DHT22;29398;45.328;5.558;2023-03-01T00:26:42;5.10;79.50
7738;DHT22;29398;45.328;5.558;2023-03-01T00:27:43;5.10;79.70
7738;DHT22;29398;45.328;5.558;2023-03-01T00:28:46;5.10;79.60
7738;DHT22;29398;45.328;5.558;2023-03-01T00:29:47;5.10;79.70
7738;DHT22;29398;45.328;5.558;2023-03-01T00:30:49;5.10;79.80
7738;DHT22;29398;45.328;5.558;2023-03-01T00:31:50;5.10;79.70
7738;DHT22;29398;45.328;5.558;2023-03-01T00:32:52;5.10;79.80
7738;DHT22;29398;45.328;5.558;2023-03-01T00:33:55;5.10;79.70
7738;DHT22;29398;45.328;5.558;2023-03-01T00:34:57;5.10;79.70
7738;DHT22;29398;45.328;5.558;2023-03-01T00:35:58;5.10;79.90
7738;DHT22;29398;45.328;5.558;2023-03-01T00:37:00;5.10;79.60
7738;DHT22;29398;45.328;5.558;2023-03-01T00:38:06;5.10;79.60
7738;DHT22;29398;45.328;5.558;2023-03-01T00:39:11;5.10;79.70
7738;DHT22;29398;45.328;5.558;2023-03-01T00:40:15;5.10;79.80
7738;DHT22;29398;45.328;5.558;2023-03-01T00:41:18;5.10;79.90
7738;DHT22;29398;45.328;5.558;2023-03-01T00:42:20;5.00;79.20
7738;DHT22;29398;45.328;5.558;2023-03-01T00:43:22;5.00;79.50
7738;DHT22;29398;45.328;5.558;2023-03-01T00:44:23;5.00;79.50
7738;DHT22;29398;45.328;5.558;2023-03-01T00:45:26;5.00;79.50
7738;DHT22;29398;45.328;5.558;2023-03-01T00:46:27;5.00;79.60
7738;DHT22;29398;45.328;5.558;2023-03-01T00:47:30;5.00;79.80
7738;DHT22;29398;45.328;5.558;2023-03-01T00:48:32;5.00;79.70
7738;DHT22;29398;45.328;5.558;2023-03-01T00:49:34;5.00;79.90
7738;DHT22;29398;45.328;5.558;2023-03-01T00:50:35;5.00;79.60
7738;DHT22;29398;45.328;5.558;2023-03-01T00:51:37;5.00;79.80
7738;DHT22;29398;45.328;5.558;2023-03-01T00:52:40;5.00;79.60
7738;DHT22;29398;45.328;5.558;2023-03-01T00:53:42;5.00;79.90
7738;DHT22;29398;45.328;5.558;2023-03-01T00:54:43;5.00;80.00
7738;DHT22;29398;45.328;5.558;2023-03-01T00:55:47;5.00;79.60
7738;DHT22;29398;45.328;5.558;2023-03-01T00:56:48;5.00;79.70
7738;DHT22;29398;45.328;5.558;2023-03-01T00:57:50;5.00;79.70
7738;DHT22;29398;45.328;5.558;2023-03-01T00:58:52;5.00;79.50
7738;DHT22;29398;45.328;5.558;2023-03-01T00:59:54;5.00;79.60
7738;DHT22;29398;45.328;5.558;2023-03-01T01:00:55;5.00;79.50
7738;DHT22;29398;45.328;5.558;2023-03-01T01:01:57;5.00;79.90
7738;DHT22;29398;45.328;5.558;2023-03-01T01:02:59;5.00;79.70
7738;DHT22;29398;45.328;5.558;2023-03-01T01:04:03;5.00;79.60
7738;DHT22;29398;45.328;5.558;2023-03-01T01:05:06;5.00;79.80
7738;DHT22;29398;45.328;5.558;2023-03-01T01:06:13;5.10;80.20
7738;DHT22;29398;45.328;5.558;2023-03-01T01:07:14;5.10;80.50
7738;DHT22;29398;45.328;5.558;2023-03-01T01:08:17;5.10;79.60
7738;DHT22;29398;45.328;5.558;2023-03-01T01:09:18;5.10;80.00
7738;DHT22;29398;45.328;5.558;2023-03-01T01:10:20;5.10;79.70
7738;DHT22;29398;45.328;5.558;2023-03-01T01:11:24;5.10;80.10
7738;DHT22;29398;45.328;5.558;2023-03-01T01:12:27;5.10;79.70
7738;DHT22;29398;45.328;5.558;2023-03-01T01:13:28;5.10;79.60
7738;DHT22;29398;45.328;5.558;2023-03-01T01:14:30;5.10;80.00
7738;DHT22;29398;45.328;5.558;2023-03-01T01:15:33;5.10;79.90
7738;DHT22;29398;45.328;5.558;2023-03-01T01:16:36;5.10;79.70
7738;DHT22;29398;45.328;5.558;2023-03-01T01:17:37;6.30;80.40
7738;DHT22;29398;45.328;5.558;2023-03-01T01:18:39;5.10;79.80
7738;DHT22;29398;45.328;5.558;2023-03-01T01:19:42;5.10;79.60
7738;DHT22;29398;45.328;5.558;2023-03-01T01:20:44;5.10;79.60
7738;DHT22;29398;45.328;5.558;2023-03-01T01:21:46;5.10;79.60
7738;DHT22;29398;45.328;5.558;2023-03-01T01:22:48;5.10;80.00
7738;DHT22;29398;45.328;5.558;2023-03-01T01:23:50;5.10;79.90
7738;DHT22;29398;45.328;5.558;2023-03-01T01:24:52;5.00;80.20
7738;DHT22;29398;45.328;5.558;2023-03-01T01:25:53;5.00;79.60
7738;DHT22;29398;45.328;5.558;2023-03-01T01:26:57;5.00;80.00
7738;DHT22;29398;45.328;5.558;2023-03-01T01:27:58;5.00;80.20
7738;DHT22;29398;45.328;5.558;2023-03-01T01:29:02;5.00;80.40
7738;DHT22;29398;45.328;5.558;2023-03-01T01:30:04;5.00;80.40
7738;DHT22;29398;45.328;5.558;2023-03-01T01:31:08;5.00;80.10
7738;DHT22;29398;45.328;5.558;2023-03-01T01:32:09;4.90;80.40
7738;DHT22;29398;45.328;5.558;2023-03-01T01:33:11;4.90;80.40
7738;DHT22;29398;45.328;5.558;2023-03-01T01:34:14;4.90;80.20
7738;DHT22;29398;45.328;5.558;2023-03-01T01:35:17;4.90;80.20
7738;DHT22;29398;45.328;5.558;2023-03-01T01:36:18;4.90;79.80
7738;DHT22;29398;45.328;5.558;2023-03-01T01:37:21;4.90;80.30
7738;DHT22;29398;45.328;5.558;2023-03-01T01:38:22;4.90;80.50
7738;DHT22;29398;45.328;5.558;2023-03-01T01:39:24;4.90;80.30
7738;DHT22;29398;45.328;5.558;2023-03-01T01:40:25;4.90;80.30
7738;DHT22;29398;45.328;5.558;2023-03-01T01:41:29;4.90;80.30
7738;DHT22;29398;45.328;5.558;2023-03-01T01:42:31;4.90;80.20
7738;DHT22;29398;45.328;5.558;2023-03-01T01:43:36;4.80;80.40
7738;DHT22;29398;45.328;5.558;2023-03-01T01:44:37;4.80;80.90
7738;DHT22;29398;45.328;5.558;2023-03-01T01:45:40;4.80;80.90
7738;DHT22;29398;45.328;5.558;2023-03-01T01:46:44;4.80;80.70
7738;DHT22;29398;45.328;5.558;2023-03-01T01:47:47;4.90;80.80
7738;DHT22;29398;45.328;5.558;2023-03-01T01:48:53;4.90;80.30
7738;DHT22;29398;45.328;5.558;2023-03-01T01:49:57;4.90;80.60
7738;DHT22;29398;45.328;5.558;2023-03-01T01:51:01;4.80;80.30
7738;DHT22;29398;45.328;5.558;2023-03-01T01:52:08;4.80;80.40
7738;DHT22;29398;45.328;5.558;2023-03-01T01:53:12;4.80;80.70
7738;DHT22;29398;45.328;5.558;2023-03-01T01:54:20;4.80;80.70
7738;DHT22;29398;45.328;5.558;2023-03-01T01:55:24;4.80;81.00
7738;DHT22;29398;45.328;5.558;2023-03-01T01:56:29;4.80;80.80
7738;DHT22;29398;45.328;5.558;2023-03-01T01:57:35;4.80;80.30
7738;DHT22;29398;45.328;5.558;2023-03-01T01:58:40;4.80;80.20
7738;DHT22;29398;45.328;5.558;2023-03-01T01:59:46;4.80;80.90
7738;DHT22;29398;45.328;5.558;2023-03-01T02:00:49;4.80;80.80
7738;DHT22;29398;45.328;5.558;2023-03-01T02:01:51;4.80;81.00
7738;DHT22;29398;45.328;5.558;2023-03-01T02:02:57;4.80;81.20
7738;DHT22;29398;45.328;5.558;2023-03-01T02:04:01;4.80;81.00
7738;DHT22;29398;45.328;5.558;2023-03-01T02:05:06;4.70;80.90
7738;DHT22;29398;45.328;5.558;2023-03-01T02:06:15;4.80;81.00
7738;DHT22;29398;45.328;5.558;2023-03-01T02:07:22;4.70;80.90
7738;DHT22;29398;45.328;5.558;2023-03-01T02:08:26;4.80;81.10
7738;DHT22;29398;45.328;5.558;2023-03-01T02:09:30;4.80;81.00
7738;DHT22;29398;45.328;5.558;2023-03-01T02:10:34;4.80;81.00
7738;DHT22;29398;45.328;5.558;2023-03-01T02:11:38;4.80;80.90
7738;DHT22;29398;45.328;5.558;2023-03-01T02:12:40;4.80;80.70
7738;DHT22;29398;45.328;5.558;2023-03-01T02:13:43;4.80;80.80
7738;DHT22;29398;45.328;5.558;2023-03-01T02:14:44;4.90;80.70
7738;DHT22;29398;45.328;5.558;2023-03-01T02:15:46;4.90;80.80
7738;DHT22;29398;45.328;5.558;2023-03-01T02:16:48;4.90;80.50
7738;DHT22;29398;45.328;5.558;2023-03-01T02:17:51;4.80;80.30
7738;DHT22;29398;45.328;5.558;2023-03-01T02:18:53;4.90;80.70
7738;DHT22;29398;45.328;5.558;2023-03-01T02:20:04;4.80;80.60
7738;DHT22;29398;45.328;5.558;2023-03-01T02:21:17;4.80;80.20
7738;DHT22;29398;45.328;5.558;2023-03-01T02:22:25;4.80;80.40
7738;DHT22;29398;45.328;5.558;2023-03-01T02:23:28;4.70;80.50
7738;DHT22;29398;45.328;5.558;2023-03-01T02:24:37;4.70;80.60
7738;DHT22;29398;45.328;5.558;2023-03-01T02:25:47;4.70;80.60
7738;DHT22;29398;45.328;5.558;2023-03-01T02:26:53;4.70;80.90
7738;DHT22;29398;45.328;5.558;2023-03-01T02:28:03;4.80;81.00
7738;DHT22;29398;45.328;5.558;2023-03-01T02:29:08;4.80;80.80
7738;DHT22;29398;45.328;5.558;2023-03-01T02:30:11;4.80;80.80
7738;DHT22;29398;45.328;5.558;2023-03-01T02:31:16;4.80;80.80
7738;DHT22;29398;45.328;5.558;2023-03-01T02:32:36;4.80;80.80
7738;DHT22;29398;45.328;5.558;2023-03-01T02:33:39;4.70;80.70
7738;DHT22;29398;45.328;5.558;2023-03-01T02:34:40;4.80;80.90
7738;DHT22;29398;45.328;5.558;2023-03-01T02:35:43;4.70;80.60
7738;DHT22;29398;45.328;5.558;2023-03-01T02:36:47;4.70;80.90
7738;DHT22;29398;45.328;5.558;2023-03-01T02:37:50;4.80;81.20
7738;DHT22;29398;45.328;5.558;2023-03-01T02:38:54;4.80;81.00
7738;DHT22;29398;45.328;5.558;2023-03-01T02:40:00;4.80;80.90
7738;DHT22;29398;45.328;5.558;2023-03-01T02:41:05;4.70;80.80
7738;DHT22;29398;45.328;5.558;2023-03-01T02:42:11;4.70;80.80
7738;DHT22;29398;45.328;5.558;2023-03-01T02:43:14;4.60;81.10
7738;DHT22;29398;45.328;5.558;2023-03-01T02:44:18;4.60;81.10
7738;DHT22;29398;45.328;5.558;2023-03-01T02:45:20;4.60;81.50
7738;DHT22;29398;45.328;5.558;2023-03-01T02:46:23;4.60;81.50
7738;DHT22;29398;45.328;5.558;2023-03-01T02:47:26;4.60;80.90
7738;DHT22;29398;45.328;5.558;2023-03-01T02:48:27;4.60;81.30
7738;DHT22;29398;45.328;5.558;2023-03-01T02:49:30;4.60;81.30
7738;DHT22;29398;45.328;5.558;2023-03-01T02:50:54;4.70;80.80
7738;DHT22;29398;45.328;5.558;2023-03-01T02:52:13;4.70;80.90
7738;DHT22;29398;45.328;5.558;2023-03-01T02:53:23;4.70;81.40
7738;DHT22;29398;45.328;5.558;2023-03-01T02:54:33;4.70;81.10
7738;DHT22;29398;45.328;5.558;2023-03-01T02:55:37;4.60;80.90
7738;DHT22;29398;45.328;5.558;2023-03-01T02:56:41;4.60;81.10
7738;DHT22;29398;45.328;5.558;2023-03-01T02:57:46;4.60;81.10
7738;DHT22;29398;45.328;5.558;2023-03-01T02:58:51;4.60;81.30
7738;DHT22;29398;45.328;5.558;2023-03-01T02:59:58;4.60;81.20
7738;DHT22;29398;45.328;5.558;2023-03-01T03:01:00;4.60;81.00
7738;DHT22;29398;45.328;5.558;2023-03-01T03:02:03;4.60;81.20
7738;DHT22;29398;45.328;5.558;2023-03-01T03:03:04;4.60;81.40
7738;DHT22;29398;45.328;5.558;2023-03-01T03:04:07;4.60;81.90
7738;DHT22;29398;45.328;5.558;2023-03-01T03:05:13;4.60;81.90
7738;DHT22;29398;45.328;5.558;2023-03-01T03:06:16;4.60;81.20
7738;DHT22;29398;45.328;5.558;2023-03-01T03:07:17;4.60;81.10
7738;DHT22;29398;45.328;5.558;2023-03-01T03:08:19;4.60;81.70
7738;DHT22;29398;45.328;5.558;2023-03-01T03:09:25;4.50;81.60
7738;DHT22;29398;45.328;5.558;2023-03-01T03:10:29;4.50;81.70
7738;DHT22;29398;45.328;5.558;2023-03-01T03:11:31;4.50;81.80
7738;DHT22;29398;45.328;5.558;2023-03-01T03:12:34;4.50;81.50
7738;DHT22;29398;45.328;5.558;2023-03-01T03:13:35;4.50;81.50
7738;DHT22;29398;45.328;5.558;2023-03-01T03:14:37;4.50;81.80
7738;DHT22;29398;45.328;5.558;2023-03-01T03:15:42;4.50;81.70
7738;DHT22;29398;45.328;5.558;2023-03-01T03:16:46;4.50;81.90
7738;DHT22;29398;45.328;5.558;2023-03-01T03:17:49;4.50;82.10
7738;DHT22;29398;45.328;5.558;2023-03-01T03:18:52;4.50;82.00
7738;DHT22;29398;45.328;5.558;2023-03-01T03:19:53;4.40;82.00
7738;DHT22;29398;45.328;5.558;2023-03-01T03:20:55;4.40;81.80
7738;DHT22;29398;45.328;5.558;2023-03-01T03:21:56;4.40;82.20
7738;DHT22;29398;45.328;5.558;2023-03-01T03:23:00;4.40;82.00
7738;DHT22;29398;45.328;5.558;2023-03-01T03:24:01;4.40;82.00
7738;DHT22;29398;45.328;5.558;2023-03-01T03:26:06;4.40;81.80
7738;DHT22;29398;45.328;5.558;2023-03-01T03:27:08;4.40;82.40
7738;DHT22;29398;45.328;5.558;2023-03-01T03:28:10;4.30;82.20
7738;DHT22;29398;45.328;5.558;2023-03-01T03:29:12;4.30;82.30
7738;DHT22;29398;45.328;5.558;2023-03-01T03:30:17;4.20;82.50
7738;DHT22;29398;45.328;5.558;2023-03-01T03:31:21;4.20;82.50
7738;DHT22;29398;45.328;5.558;2023-03-01T03:32:22;4.30;82.80
7738;DHT22;29398;45.328;5.558;2023-03-01T03:33:25;4.30;82.80
7738;DHT22;29398;45.328;5.558;2023-03-01T03:34:26;4.20;82.80
7738;DHT22;29398;45.328;5.558;2023-03-01T03:35:29;4.30;83.10
7738;DHT22;29398;45.328;5.558;2023-03-01T03:36:31;4.30;82.90
7738;DHT22;29398;45.328;5.558;2023-03-01T03:37:33;4.30;83.10
7738;DHT22;29398;45.328;5.558;2023-03-01T03:38:52;4.30;82.70
7738;DHT22;29398;45.328;5.558;2023-03-01T03:39:54;4.30;82.50
7738;DHT22;29398;45.328;5.558;2023-03-01T03:41:00;4.30;82.80
7738;DHT22;29398;45.328;5.558;2023-03-01T03:42:04;4.30;82.60
7738;DHT22;29398;45.328;5.558;2023-03-01T03:43:07;4.30;82.60
7738;DHT22;29398;45.328;5.558;2023-03-01T03:44:10;4.30;82.50
7738;DHT22;29398;45.328;5.558;2023-03-01T03:45:11;4.20;82.60
7738;DHT22;29398;45.328;5.558;2023-03-01T03:46:13;4.20;82.70
7738;DHT22;29398;45.328;5.558;2023-03-01T03:47:17;4.30;82.90
7738;DHT22;29398;45.328;5.558;2023-03-01T03:48:18;4.30;82.80
7738;DHT22;29398;45.328;5.558;2023-03-01T03:49:20;4.30;82.70
7738;DHT22;29398;45.328;5.558;2023-03-01T03:50:22;4.30;83.00
7738;DHT22;29398;45.328;5.558;2023-03-01T03:51:24;4.30;83.00
7738;DHT22;29398;45.328;5.558;2023-03-01T03:52:26;4.20;82.90
7738;DHT22;29398;45.328;5.558;2023-03-01T03:53:28;4.20;82.80
7738;DHT22;29398;45.328;5.558;2023-03-01T03:54:30;4.20;83.00
7738;DHT22;29398;45.328;5.558;2023-03-01T03:55:31;4.20;82.90
7738;DHT22;29398;45.328;5.558;2023-03-01T03:56:34;4.20;83.20
7738;DHT22;29398;45.328;5.558;2023-03-01T03:57:35;4.30;83.00
7738;DHT22;29398;45.328;5.558;2023-03-01T03:58:37;4.20;83.10
7738;DHT22;29398;45.328;5.558;2023-03-01T03:59:38;4.20;83.10
7738;DHT22;29398;45.328;5.558;2023-03-01T04:00:43;4.20;83.10
7738;DHT22;29398;45.328;5.558;2023-03-01T04:01:44;4.20;83.10
7738;DHT22;29398;45.328;5.558;2023-03-01T04:02:48;4.10;83.20
7738;DHT22;29398;45.328;5.558;2023-03-01T04:03:49;4.10;83.10
7738;DHT22;29398;45.328;5.558;2023-03-01T04:04:54;4.10;83.20
7738;DHT22;29398;45.328;5.558;2023-03-01T04:05:57;4.20;83.30
7738;DHT22;29398;45.328;5.558;2023-03-01T04:06:59;4.20;83.50
7738;DHT22;29398;45.328;5.558;2023-03-01T04:08:00;4.20;83.20
7738;DHT22;29398;45.328;5.558;2023-03-01T04:09:07;4.20;83.30
7738;DHT22;29398;45.328;5.558;2023-03-01T04:10:12;4.20;83.60
7738;DHT22;29398;45.328;5.558;2023-03-01T04:11:13;4.10;83.40
7738;DHT22;29398;45.328;5.558;2023-03-01T04:12:28;4.10;83.40
7738;DHT22;29398;45.328;5.558;2023-03-01T04:13:29;4.20;83.80
7738;DHT22;29398;45.328;5.558;2023-03-01T04:14:31;4.20;83.60
7738;DHT22;29398;45.328;5.558;2023-03-01T04:15:33;4.20;83.30
7738;DHT22;29398;45.328;5.558;2023-03-01T04:16:35;4.10;83.30
7738;DHT22;29398;45.328;5.558;2023-03-01T04:17:36;4.10;83.30
7738;DHT22;29398;45.328;5.558;2023-03-01T04:18:41;4.10;84.10
7738;DHT22;29398;45.328;5.558;2023-03-01T04:19:43;4.10;83.20
7738;DHT22;29398;45.328;5.558;2023-03-01T04:20:45;4.10;83.10
7738;DHT22;29398;45.328;5.558;2023-03-01T04:21:47;4.10;83.60
7738;DHT22;29398;45.328;5.558;2023-03-01T04:22:49;4.10;83.50
7738;DHT22;29398;45.328;5.558;2023-03-01T04:23:51;4.10;83.40
7738;DHT22;29398;45.328;5.558;2023-03-01T04:24:54;4.10;83.50
7738;DHT22;29398;45.328;5.558;2023-03-01T04:25:57;4.10;83.40
7738;DHT22;29398;45.328;5.558;2023-03-01T04:27:00;4.10;83.60
7738;DHT22;29398;45.328;5.558;2023-03-01T04:28:01;4.10;83.50
7738;DHT22;29398;45.328;5.558;2023-03-01T04:29:03;4.10;83.30
7738;DHT22;29398;45.328;5.558;2023-03-01T04:30:06;4.10;83.20
7738;DHT22;29398;45.328;5.558;2023-03-01T04:31:10;4.10;83.30
7738;DHT22;29398;45.328;5.558;2023-03-01T04:32:14;4.10;83.30
7738;DHT22;29398;45.328;5.558;2023-03-01T04:33:17;4.00;83.30
7738;DHT22;29398;45.328;5.558;2023-03-01T04:34:19;3.90;83.30
7738;DHT22;29398;45.328;5.558;2023-03-01T04:35:21;3.90;83.70
7738;DHT22;29398;45.328;5.558;2023-03-01T04:36:24;2.30;82.90
7738;DHT22;29398;45.328;5.558;2023-03-01T04:37:27;3.80;83.90
7738;DHT22;29398;45.328;5.558;2023-03-01T04:38:28;3.80;84.20
7738;DHT22;29398;45.328;5.558;2023-03-01T04:39:30;3.70;84.10
7738;DHT22;29398;45.328;5.558;2023-03-01T04:40:32;3.70;83.70
7738;DHT22;29398;45.328;5.558;2023-03-01T04:41:34;3.80;84.10
7738;DHT22;29398;45.328;5.558;2023-03-01T04:42:35;3.80;84.10
7738;DHT22;29398;45.328;5.558;2023-03-01T04:43:37;3.80;84.00
7738;DHT22;29398;45.328;5.558;2023-03-01T04:44:38;3.80;84.10
7738;DHT22;29398;45.328;5.558;2023-03-01T04:45:40;3.80;84.00
7738;DHT22;29398;45.328;5.558;2023-03-01T04:46:42;3.80;84.20
7738;DHT22;29398;45.328;5.558;2023-03-01T04:47:45;3.80;83.90
7738;DHT22;29398;45.328;5.558;2023-03-01T04:48:47;3.80;84.10
7738;DHT22;29398;45.328;5.558;2023-03-01T04:49:50;3.80;84.00
7738;DHT22;29398;45.328;5.558;2023-03-01T04:50:51;3.80;84.10
7738;DHT22;29398;45.328;5.558;2023-03-01T04:51:53;3.80;84.00
7738;DHT22;29398;45.328;5.558;2023-03-01T04:52:55;3.70;83.60
7738;DHT22;29398;45.328;5.558;2023-03-01T04:53:59;3.80;83.40
7738;DHT22;29398;45.328;5.558;2023-03-01T04:55:01;3.80;83.60
7738;DHT22;29398;45.328;5.558;2023-03-01T04:56:04;3.80;83.80
7738;DHT22;29398;45.328;5.558;2023-03-01T04:57:07;3.80;83.90
7738;DHT22;29398;45.328;5.558;2023-03-01T04:58:08;3.80;84.10
7738;DHT22;29398;45.328;5.558;2023-03-01T04:59:10;3.80;84.10
7738;DHT22;29398;45.328;5.558;2023-03-01T05:00:15;3.80;83.60
7738;DHT22;29398;45.328;5.558;2023-03-01T05:01:23;3.90;83.70
7738;DHT22;29398;45.328;5.558;2023-03-01T05:02:24;3.90;83.50
7738;DHT22;29398;45.328;5.558;2023-03-01T05:03:26;3.90;83.00
7738;DHT22;29398;45.328;5.558;2023-03-01T05:04:28;3.80;83.60
7738;DHT22;29398;45.328;5.558;2023-03-01T05:05:35;3.80;83.30
7738;DHT22;29398;45.328;5.558;2023-03-01T05:06:36;3.80;83.50
7738;DHT22;29398;45.328;5.558;2023-03-01T05:07:38;3.80;83.40
7738;DHT22;29398;45.328;5.558;2023-03-01T05:08:40;3.70;83.70
7738;DHT22;29398;45.328;5.558;2023-03-01T05:09:43;3.70;83.60
7738;DHT22;29398;45.328;5.558;2023-03-01T05:10:45;3.80;83.80
7738;DHT22;29398;45.328;5.558;2023-03-01T05:11:47;3.80;83.40
7738;DHT22;29398;45.328;5.558;2023-03-01T05:12:48;3.80;83.20
7738;DHT22;29398;45.328;5.558;2023-03-01T05:13:52;3.80;83.00
7738;DHT22;29398;45.328;5.558;2023-03-01T05:14:55;3.80;83.20
7738;DHT22;29398;45.328;5.558;2023-03-01T05:15:58;3.80;83.50
7738;DHT22;29398;45.328;5.558;2023-03-01T05:17:00;3.80;83.20
7738;DHT22;29398;45.328;5.558;2023-03-01T05:18:05;3.80;83.60
7738;DHT22;29398;45.328;5.558;2023-03-01T05:19:11;3.80;83.50
7738;DHT22;29398;45.328;5.558;2023-03-01T05:20:16;3.90;83.50
7738;DHT22;29398;45.328;5.558;2023-03-01T05:21:19;3.90;83.30
7738;DHT22;29398;45.328;5.558;2023-03-01T05:22:20;3.90;83.00
7738;DHT22;29398;45.328;5.558;2023-03-01T05:23:23;3.90;83.10
7738;DHT22;29398;45.328;5.558;2023-03-01T05:24:25;3.80;83.30
7738;DHT22;29398;45.328;5.558;2023-03-01T05:25:27;3.80;83.00
7738;DHT22;29398;45.328;5.558;2023-03-01T05:26:35;3.80;83.40
7738;DHT22;29398;45.328;5.558;2023-03-01T05:27:40;3.80;83.00
7738;DHT22;29398;45.328;5.558;2023-03-01T05:28:43;3.80;83.40
7738;DHT22;29398;45.328;5.558;2023-03-01T05:29:45;3.80;83.60
7738;DHT22;29398;45.328;5.558;2023-03-01T05:30:46;3.80;83.20
7738;DHT22;29398;45.328;5.558;2023-03-01T05:31:48;3.80;83.40
7738;DHT22;29398;45.328;5.558;2023-03-01T05:32:50;3.80;83.80
7738;DHT22;29398;45.328;5.558;2023-03-01T05:33:56;3.80;83.60
7738;DHT22;29398;45.328;5.558;2023-03-01T05:34:57;3.80;83.60
7738;DHT22;29398;45.328;5.558;2023-03-01T05:36:00;3.40;83.30
7738;DHT22;29398;45.328;5.558;2023-03-01T05:37:03;3.80;83.00
7738;DHT22;29398;45.328;5.558;2023-03-01T05:38:05;3.70;83.30
7738;DHT22;29398;45.328;5.558;2023-03-01T05:39:06;3.70;83.10
7738;DHT22;29398;45.328;5.558;2023-03-01T05:40:11;3.80;83.40
7738;DHT22;29398;45.328;5.558;2023-03-01T05:41:17;3.80;83.10
7738;DHT22;29398;45.328;5.558;2023-03-01T05:42:18;3.80;83.10
7738;DHT22;29398;45.328;5.558;2023-03-01T05:43:20;3.80;83.30
7738;DHT22;29398;45.328;5.558;2023-03-01T05:44:22;3.80;83.00
7738;DHT22;29398;45.328;5.558;2023-03-01T05:45:25;3.80;83.20
7738;DHT22;29398;45.328;5.558;2023-03-01T05:46:27;3.80;83.20
7738;DHT22;29398;45.328;5.558;2023-03-01T05:47:29;3.70;83.00
7738;DHT22;29398;45.328;5.558;2023-03-01T05:48:32;3.70;83.20
7738;DHT22;29398;45.328;5.558;2023-03-01T05:49:33;3.70;82.90
7738;DHT22;29398;45.328;5.558;2023-03-01T05:50:37;3.70;82.90
7738;DHT22;29398;45.328;5.558;2023-03-01T05:51:40;3.70;83.40
7738;DHT22;29398;45.328;5.558;2023-03-01T05:52:43;3.70;82.80
7738;DHT22;29398;45.328;5.558;2023-03-01T05:53:45;3.70;83.50
7738;DHT22;29398;45.328;5.558;2023-03-01T05:54:48;3.70;83.10
7738;DHT22;29398;45.328;5.558;2023-03-01T05:55:49;3.70;83.10
7738;DHT22;29398;45.328;5.558;2023-03-01T05:56:52;3.70;83.30
7738;DHT22;29398;45.328;5.558;2023-03-01T05:57:53;3.70;83.10
7738;DHT22;29398;45.328;5.558;2023-03-01T05:58:55;3.70;83.00
7738;DHT22;29398;45.328;5.558;2023-03-01T05:59:56;3.70;83.10
7738;DHT22;29398;45.328;5.558;2023-03-01T06:00:58;3.70;83.30
7738;DHT22;29398;45.328;5.558;2023-03-01T06:02:00;3.70;83.00
7738;DHT22;29398;45.328;5.558;2023-03-01T06:03:02;3.70;83.10
7738;DHT22;29398;45.328;5.558;2023-03-01T06:04:04;3.60;83.20
7738;DHT22;29398;45.328;5.558;2023-03-01T06:05:06;3.70;83.40
7738;DHT22;29398;45.328;5.558;2023-03-01T06:06:09;3.70;83.40
7738;DHT22;29398;45.328;5.558;2023-03-01T06:07:10;3.70;83.20
7738;DHT22;29398;45.328;5.558;2023-03-01T06:08:14;3.70;83.20
7738;DHT22;29398;45.328;5.558;2023-03-01T06:09:15;3.70;82.80
7738;DHT22;29398;45.328;5.558;2023-03-01T06:10:18;3.70;82.90
7738;DHT22;29398;45.328;5.558;2023-03-01T06:11:19;3.70;82.90
7738;DHT22;29398;45.328;5.558;2023-03-01T06:12:21;3.70;83.00
7738;DHT22;29398;45.328;5.558;2023-03-01T06:13:23;3.80;82.70
7738;DHT22;29398;45.328;5.558;2023-03-01T06:14:25;3.80;82.60
7738;DHT22;29398;45.328;5.558;2023-03-01T06:15:26;3.80;82.60
7738;DHT22;29398;45.328;5.558;2023-03-01T06:16:28;3.80;83.10
7738;DHT22;29398;45.328;5.558;2023-03-01T06:17:31;3.80;82.60
7738;DHT22;29398;45.328;5.558;2023-03-01T06:18:33;3.70;82.30
7738;DHT22;29398;45.328;5.558;2023-03-01T06:19:35;3.70;82.50
7738;DHT22;29398;45.328;5.558;2023-03-01T06:20:36;3.70;82.60
7738;DHT22;29398;45.328;5.558;2023-03-01T06:21:38;3.70;82.50
7738;DHT22;29398;45.328;5.558;2023-03-01T06:22:39;3.70;83.00
7738;DHT22;29398;45.328;5.558;2023-03-01T06:23:43;3.70;83.10
7738;DHT22;29398;45.328;5.558;2023-03-01T06:24:45;3.70;83.30
7738;DHT22;29398;45.328;5.558;2023-03-01T06:25:47;3.70;83.10
7738;DHT22;29398;45.328;5.558;2023-03-01T06:26:48;3.70;83.20
7738;DHT22;29398;45.328;5.558;2023-03-01T06:27:50;3.70;83.30
7738;DHT22;29398;45.328;5.558;2023-03-01T06:28:52;3.70;82.90
7738;DHT22;29398;45.328;5.558;2023-03-01T06:29:55;3.70;82.70
7738;DHT22;29398;45.328;5.558;2023-03-01T06:30:56;3.70;83.10
7738;DHT22;29398;45.328;5.558;2023-03-01T06:31:58;3.70;83.00
7738;DHT22;29398;45.328;5.558;2023-03-01T06:32:59;3.60;83.00
7738;DHT22;29398;45.328;5.558;2023-03-01T06:34:02;3.60;83.20
7738;DHT22;29398;45.328;5.558;2023-03-01T06:35:04;3.60;83.20
7738;DHT22;29398;45.328;5.558;2023-03-01T06:36:07;3.60;83.50
7738;DHT22;29398;45.328;5.558;2023-03-01T06:37:10;3.60;83.30
7738;DHT22;29398;45.328;5.558;2023-03-01T06:38:12;3.60;83.10
7738;DHT22;29398;45.328;5.558;2023-03-01T06:39:17;3.60;83.00
7738;DHT22;29398;45.328;5.558;2023-03-01T06:40:18;3.70;83.00
7738;DHT22;29398;45.328;5.558;2023-03-01T06:41:21;3.70;83.30
7738;DHT22;29398;45.328;5.558;2023-03-01T06:42:23;3.70;83.50
7738;DHT22;29398;45.328;5.558;2023-03-01T06:43:25;3.70;83.50
7738;DHT22;29398;45.328;5.558;2023-03-01T06:45:28;3.80;83.10
7738;DHT22;29398;45.328;5.558;2023-03-01T06:46:32;3.80;82.60
7738;DHT22;29398;45.328;5.558;2023-03-01T06:47:34;3.70;82.30
7738;DHT22;29398;45.328;5.558;2023-03-01T06:48:36;3.70;82.80
7738;DHT22;29398;45.328;5.558;2023-03-01T06:49:38;3.60;82.50
7738;DHT22;29398;45.328;5.558;2023-03-01T06:50:39;3.60;82.50
7738;DHT22;29398;45.328;5.558;2023-03-01T06:51:41;3.50;82.70
7738;DHT22;29398;45.328;5.558;2023-03-01T06:52:42;3.50;83.00
7738;DHT22;29398;45.328;5.558;2023-03-01T06:53:46;3.50;83.20